Time;durP1;ratioP1;P1;durP2;ratioP2;P2;SDS_P1;SDS_P2;PMS_P1;PMS_P2;Temp;Humidity;BMP_temperature;BMP_pressure;BME280_temperature;BME280_humidity;BME280_pressure;Samples;Min_cycle;Max_cycle;Signal;HPM_P1;HPM_P2
2023/10/10 00:02:20;;;;;;;18.53;13.10;;;16.30;99.90;;;;;;5091591;28;20200;-72
2023/10/10 00:04:54;;;;;;;18.27;11.77;;;16.30;99.90;;;;;;5093053;28;20206;-72
2023/10/10 00:07:20;;;;;;;21.10;12.20;;;16.20;99.90;;;;;;5093142;28;20191;-72
2023/10/10 00:09:46;;;;;;;19.27;12.40;;;16.20;99.90;;;;;;5091751;28;20179;-72
2023/10/10 00:12:30;;;;;;;17.63;11.60;;;16.20;99.90;;;;;;5092973;28;20489;-72
2023/10/10 00:14:57;;;;;;;15.90;12.10;;;16.30;99.90;;;;;;5092999;28;20254;-71
2023/10/10 00:17:29;;;;;;;22.57;12.20;;;16.20;99.90;;;;;;5092712;28;20643;-70
2023/10/10 00:19:55;;;;;;;23.83;10.90;;;16.20;99.90;;;;;;5093030;28;20200;-71
2023/10/10 00:22:26;;;;;;;14.43;11.07;;;16.20;99.90;;;;;;5092529;28;20231;-72
2023/10/10 00:24:52;;;;;;;16.67;11.20;;;16.20;99.90;;;;;;5092777;28;20195;-72
2023/10/10 00:27:18;;;;;;;20.33;11.67;;;16.20;99.90;;;;;;5092955;28;20172;-72
2023/10/10 00:29:43;;;;;;;18.17;10.50;;;16.10;99.90;;;;;;5092876;28;20576;-72
2023/10/10 00:32:16;;;;;;;16.67;10.57;;;16.20;99.90;;;;;;5092419;28;20179;-72
2023/10/10 00:34:47;;;;;;;19.83;10.40;;;16.20;99.90;;;;;;5091574;28;20176;-71
2023/10/10 00:37:13;;;;;;;16.90;10.37;;;16.10;99.90;;;;;;5095568;28;20229;-72
2023/10/10 00:39:38;;;;;;;17.60;10.23;;;16.10;99.90;;;;;;5096521;28;20236;-72
2023/10/10 00:42:06;;;;;;;20.40;11.07;;;16.00;99.90;;;;;;5096376;28;20286;-72
2023/10/10 00:44:37;;;;;;;19.93;10.50;;;15.90;99.90;;;;;;5096513;28;20172;-71
2023/10/10 00:47:03;;;;;;;19.10;11.20;;;16.00;99.90;;;;;;5096100;28;20202;-72
2023/10/10 00:49:34;;;;;;;17.53;10.63;;;15.90;99.90;;;;;;5096283;28;20229;-71
2023/10/10 00:52:06;;;;;;;18.50;10.43;;;15.90;99.90;;;;;;5096347;28;20211;-71
2023/10/10 00:54:36;;;;;;;20.80;10.90;;;15.90;99.90;;;;;;5096208;28;20628;-72
2023/10/10 00:57:08;;;;;;;16.47;10.50;;;15.90;99.90;;;;;;5096247;28;20168;-72
2023/10/10 00:59:43;;;;;;;17.67;10.50;;;15.80;99.90;;;;;;5095967;28;20176;-71
2023/10/10 01:02:10;;;;;;;15.03;10.07;;;15.80;99.90;;;;;;5095574;28;20440;-72
2023/10/10 01:04:48;;;;;;;13.80;10.63;;;15.70;99.90;;;;;;5096035;28;20206;-72
2023/10/10 01:07:18;;;;;;;15.13;10.57;;;15.70;99.90;;;;;;5094785;28;20198;-72
2023/10/10 01:12:20;;;;;;;14.40;10.27;;;15.60;99.90;;;;;;5096127;28;20267;-71
2023/10/10 01:14:46;;;;;;;19.13;10.63;;;15.70;99.90;;;;;;5095800;28;20171;-72
2023/10/10 01:17:14;;;;;;;16.83;10.00;;;15.70;99.90;;;;;;5095582;28;20180;-71
2023/10/10 01:19:44;;;;;;;16.13;9.93;;;15.70;99.90;;;;;;5095803;28;20202;-72
2023/10/10 01:22:22;;;;;;;17.53;10.90;;;15.70;99.90;;;;;;5095501;28;20725;-72
2023/10/10 01:24:51;;;;;;;15.27;10.07;;;15.60;99.90;;;;;;5095670;28;20270;-72
2023/10/10 01:27:21;;;;;;;15.53;9.93;;;15.60;99.90;;;;;;5095614;28;20167;-71
2023/10/10 01:29:56;;;;;;;14.87;10.33;;;15.50;99.90;;;;;;5095284;28;20616;-71
2023/10/10 01:32:21;;;;;;;17.37;10.53;;;15.50;99.90;;;;;;5095733;28;20170;-71
2023/10/10 01:34:47;;;;;;;15.70;10.10;;;15.50;99.90;;;;;;5095460;28;20164;-72
2023/10/10 01:40:01;;;;;;;13.07;10.20;;;15.50;99.90;;;;;;5095311;28;20168;-71
2023/10/10 01:42:37;;;;;;;13.83;10.60;;;15.60;99.90;;;;;;5095438;28;20651;-71
2023/10/10 01:45:10;;;;;;;12.00;9.27;;;15.50;99.90;;;;;;5095123;28;20183;-72
2023/10/10 01:47:39;;;;;;;19.63;10.47;;;15.50;99.90;;;;;;5094741;28;20255;-71
2023/10/10 01:50:08;;;;;;;16.43;10.57;;;15.50;99.90;;;;;;5095081;28;20171;-71
2023/10/10 01:52:37;;;;;;;14.57;9.77;;;15.50;99.90;;;;;;5093930;28;20179;-71
2023/10/10 01:55:05;;;;;;;12.00;9.60;;;15.40;99.90;;;;;;5095199;28;20167;-72
2023/10/10 01:57:31;;;;;;;12.90;9.47;;;15.40;99.90;;;;;;5095269;28;20175;-70
2023/10/10 01:59:58;;;;;;;14.30;9.80;;;15.30;99.90;;;;;;5094834;28;20179;-72
2023/10/10 02:02:26;;;;;;;13.80;9.93;;;15.30;99.90;;;;;;5094995;28;20216;-70
2023/10/10 02:04:56;;;;;;;13.97;9.17;;;15.20;99.90;;;;;;5094915;28;20171;-70
2023/10/10 02:07:23;;;;;;;12.47;9.50;;;15.20;99.90;;;;;;5094961;28;20203;-71
2023/10/10 02:10:36;;;;;;;14.87;10.00;;;15.30;99.90;;;;;;5094692;28;20181;-70
2023/10/10 02:12:45;;;;;;;16.00;10.17;;;15.30;99.90;;;;;;5088904;28;20176;-71
2023/10/10 02:15:13;;;;;;;15.17;10.57;;;15.30;99.90;;;;;;5094450;28;20172;-71
2023/10/10 02:17:41;;;;;;;14.53;9.73;;;15.40;99.90;;;;;;5094675;28;20623;-72
2023/10/10 02:22:53;;;;;;;11.10;9.27;;;15.40;99.90;;;;;;5094640;28;20207;-71
2023/10/10 02:28:02;;;;;;;13.20;9.43;;;15.40;99.90;;;;;;5094180;28;20168;-72
2023/10/10 02:30:35;;;;;;;14.73;9.43;;;15.40;99.90;;;;;;5094488;28;20211;-72
2023/10/10 02:35:56;;;;;;;10.57;9.40;;;15.50;99.90;;;;;;5072677;28;20218;-71
2023/10/10 02:38:39;;;;;;;14.33;8.93;;;15.30;99.90;;;;;;5094185;28;20159;-72
2023/10/10 02:46:38;;;;;;;13.40;8.97;;;15.40;99.90;;;;;;5094151;28;20178;-71
2023/10/10 02:51:55;;;;;;;13.53;8.90;;;15.30;99.90;;;;;;5094334;28;20228;-71
2023/10/10 02:57:26;;;;;;;12.80;9.33;;;15.20;99.90;;;;;;5093789;28;20639;-72
2023/10/10 02:59:50;;;;;;;14.87;8.80;;;15.10;99.90;;;;;;5092849;28;20180;-71
2023/10/10 03:02:20;;;;;;;12.13;8.93;;;15.10;99.90;;;;;;5093941;28;20206;-71
2023/10/10 03:05:06;;;;;;;15.70;9.87;;;15.10;99.90;;;;;;5093863;28;20174;-71
2023/10/10 03:07:32;;;;;;;12.67;9.90;;;15.10;99.90;;;;;;5093751;28;20219;-71
2023/10/10 03:12:49;;;;;;;15.73;11.70;;;15.00;99.90;;;;;;5093688;28;20232;-72
2023/10/10 03:15:27;;;;;;;12.37;10.47;;;15.00;99.90;;;;;;5092337;28;20176;-71
2023/10/10 03:25:52;;;;;;;14.00;11.27;;;14.70;99.90;;;;;;5093378;28;20216;-70
2023/10/10 03:31:08;;;;;;;22.33;11.47;;;14.60;99.90;;;;;;5093525;28;20634;-71
2023/10/10 05:25:08;;;;;;;14.37;10.37;;;15.00;99.90;;;;;;5094815;28;20182;-73
2023/10/10 05:27:41;;;;;;;17.63;10.37;;;14.90;99.90;;;;;;5094992;28;20194;-72
2023/10/10 05:30:57;;;;;;;17.87;10.70;;;14.90;99.90;;;;;;5095199;28;20191;-72
2023/10/10 05:33:01;;;;;;;15.60;10.23;;;14.90;99.90;;;;;;5086763;28;20187;-72
2023/10/10 05:35:28;;;;;;;16.87;11.13;;;14.90;99.90;;;;;;5095151;28;20657;-72
2023/10/10 05:37:54;;;;;;;20.70;10.07;;;14.90;99.90;;;;;;5094261;28;20179;-72
2023/10/10 05:40:20;;;;;;;21.77;10.30;;;15.00;99.90;;;;;;5094920;28;20180;-73
2023/10/10 05:42:46;;;;;;;13.03;9.40;;;15.10;99.90;;;;;;5094393;28;20667;-72
2023/10/10 05:45:13;;;;;;;21.37;10.40;;;15.00;99.90;;;;;;5094265;28;20175;-73
2023/10/10 05:47:39;;;;;;;14.43;9.37;;;15.10;99.90;;;;;;5094642;28;20184;-72
2023/10/10 05:50:10;;;;;;;11.90;8.83;;;15.10;99.90;;;;;;5092603;28;20168;-72
2023/10/10 05:52:39;;;;;;;17.23;9.60;;;15.10;99.90;;;;;;5093801;28;20221;-71
2023/10/10 05:55:10;;;;;;;18.63;9.53;;;15.10;99.90;;;;;;5094501;28;20176;-72
2023/10/10 05:57:37;;;;;;;16.27;9.50;;;15.10;99.90;;;;;;5094125;28;20175;-73
2023/10/10 06:00:10;;;;;;;17.43;9.30;;;15.10;99.90;;;;;;5094319;28;20226;-72
2023/10/10 06:02:46;;;;;;;16.83;9.60;;;15.10;99.90;;;;;;5093627;28;20244;-73
2023/10/10 06:05:16;;;;;;;15.83;9.43;;;15.10;99.90;;;;;;5093292;28;20187;-72
2023/10/10 06:07:48;;;;;;;16.13;9.70;;;15.20;99.90;;;;;;5094277;28;20188;-73
2023/10/10 06:10:17;;;;;;;18.27;9.57;;;15.10;99.90;;;;;;5093765;28;20642;-73
2023/10/10 06:12:45;;;;;;;18.67;9.20;;;15.00;99.90;;;;;;5094142;28;20538;-72
2023/10/10 06:15:11;;;;;;;16.03;9.97;;;15.10;99.90;;;;;;5093120;28;20164;-72
2023/10/10 06:17:38;;;;;;;18.87;9.93;;;15.10;99.90;;;;;;5093899;28;20199;-73
2023/10/10 06:20:16;;;;;;;15.63;9.30;;;15.10;99.90;;;;;;5093186;28;20183;-72
2023/10/10 06:22:45;;;;;;;17.90;8.87;;;15.10;99.90;;;;;;5093763;28;20210;-72
2023/10/10 06:25:11;;;;;;;16.23;9.30;;;15.10;99.90;;;;;;5092219;28;20253;-74
2023/10/10 06:27:40;;;;;;;17.03;9.97;;;15.20;99.90;;;;;;5094029;28;20340;-72
2023/10/10 06:30:17;;;;;;;14.93;9.13;;;15.20;99.90;;;;;;5092560;28;20179;-73
2023/10/10 06:32:49;;;;;;;18.83;8.93;;;15.30;99.90;;;;;;5093774;28;20174;-73
2023/10/10 06:37:42;;;;;;;16.97;9.37;;;15.50;99.90;;;;;;5093056;28;20179;-73
2023/10/10 06:40:09;;;;;;;17.43;9.20;;;15.60;99.90;;;;;;5091832;28;20167;-72
2023/10/10 06:42:38;;;;;;;13.87;9.20;;;15.60;99.90;;;;;;5091473;28;20295;-73
2023/10/10 06:45:10;;;;;;;15.23;9.07;;;15.70;99.90;;;;;;5092933;28;20240;-73
2023/10/10 06:47:39;;;;;;;19.13;9.23;;;15.80;99.90;;;;;;5092393;28;20222;-74
2023/10/10 06:50:10;;;;;;;15.57;9.37;;;16.00;99.90;;;;;;5092891;28;20166;-73
2023/10/10 06:52:36;;;;;;;20.80;8.90;;;16.00;99.90;;;;;;5093563;28;20647;-74
2023/10/10 06:55:10;;;;;;;14.80;9.23;;;16.10;99.90;;;;;;5092723;28;20179;-75
2023/10/10 06:57:38;;;;;;;21.20;10.17;;;16.20;99.90;;;;;;5073058;28;20174;-72
2023/10/10 07:02:48;;;;;;;18.87;10.70;;;16.50;99.90;;;;;;5073030;28;20230;-73
2023/10/10 07:05:19;;;;;;;21.10;9.67;;;16.60;99.90;;;;;;5091963;28;20179;-72
2023/10/10 07:07:46;;;;;;;16.88;10.18;;;16.80;99.90;;;;;;5091895;28;20207;-72
2023/10/10 07:10:24;;;;;;;18.52;9.57;;;16.90;99.90;;;;;;5093282;28;20247;-72
2023/10/10 07:12:51;;;;;;;14.02;9.15;;;17.10;99.90;;;;;;5091262;28;20271;-74
2023/10/10 07:15:21;;;;;;;20.67;9.65;;;17.40;99.90;;;;;;5092675;28;20639;-72
2023/10/10 07:17:49;;;;;;;18.48;9.32;;;17.70;99.90;;;;;;5092465;28;20607;-71
2023/10/10 07:22:47;;;;;;;15.35;9.50;;;18.10;99.90;;;;;;5091178;28;20257;-72
2023/10/10 07:25:31;;;;;;;15.48;9.68;;;18.30;99.90;;;;;;5092520;28;20615;-71
2023/10/10 07:27:57;;;;;;;13.32;9.40;;;18.70;99.90;;;;;;5092368;28;20172;-74
2023/10/10 07:30:34;;;;;;;13.75;8.35;;;18.90;99.90;;;;;;5092488;28;20172;-72
2023/10/10 07:33:02;;;;;;;22.98;9.75;;;19.20;99.90;;;;;;5085501;28;20221;-72
2023/10/10 07:35:29;;;;;;;15.48;9.75;;;19.80;99.90;;;;;;5100234;28;20179;-72
2023/10/10 07:37:58;;;;;;;17.58;9.93;;;20.20;99.90;;;;;;5104770;28;20635;-72
2023/10/10 07:40:31;;;;;;;18.45;9.50;;;21.00;99.90;;;;;;5091184;28;20285;-73
2023/10/10 07:43:01;;;;;;;13.90;9.25;;;20.90;99.90;;;;;;5102055;28;20207;-73
2023/10/10 07:45:33;;;;;;;20.33;9.52;;;20.80;99.90;;;;;;5093101;28;20176;-72
2023/10/10 07:50:35;;;;;;;17.30;9.77;;;21.50;99.90;;;;;;5100953;28;20492;-74
2023/10/10 07:53:12;;;;;;;20.48;10.20;;;22.10;99.90;;;;;;5096336;28;20696;-73
2023/10/10 07:58:23;;;;;;;16.88;9.32;;;23.00;97.80;;;;;;5109923;28;20236;-73
2023/10/10 08:00:51;;;;;;;16.98;9.18;;;23.10;97.00;;;;;;5111361;28;20213;-74
2023/10/10 08:03:19;;;;;;;18.42;9.95;;;23.40;96.80;;;;;;5094489;28;20211;-73
2023/10/10 08:05:48;;;;;;;14.55;8.95;;;24.50;94.70;;;;;;5111777;28;20171;-72
2023/10/10 08:08:15;;;;;;;14.70;8.55;;;25.10;92.60;;;;;;5103052;28;20277;-71
2023/10/10 08:10:44;;;;;;;17.35;9.20;;;25.10;91.60;;;;;;5103424;28;20163;-72
2023/10/10 08:13:13;;;;;;;21.17;10.05;;;24.90;91.50;;;;;;5095381;28;20180;-72
2023/10/10 08:15:56;;;;;;;18.70;9.10;;;24.30;92.80;;;;;;5111596;28;20189;-74
2023/10/10 08:18:49;;;;;;;13.95;9.45;;;23.90;94.80;;;;;;5090036;28;20176;-73
2023/10/10 08:21:16;;;;;;;10.05;7.70;;;23.50;94.80;;;;;;5087223;28;20249;-72
2023/10/10 08:23:42;;;;;;;13.00;8.25;;;22.90;95.70;;;;;;5086897;28;20677;-75
2023/10/10 08:26:17;;;;;;;13.10;8.90;;;22.80;97.00;;;;;;5079125;28;20183;-72
2023/10/10 08:28:44;;;;;;;15.13;8.55;;;22.70;97.10;;;;;;5089658;28;20198;-72
2023/10/10 08:31:10;;;;;;;15.45;8.57;;;22.90;97.10;;;;;;5096989;28;20271;-72
2023/10/10 08:33:36;;;;;;;15.10;10.52;;;23.60;95.40;;;;;;5096354;28;20217;-71
2023/10/10 08:36:02;;;;;;;14.10;9.25;;;24.20;94.60;;;;;;5104669;28;20168;-73
2023/10/10 08:38:27;;;;;;;13.80;8.77;;;24.10;94.00;;;;;;5101741;28;20390;-71
2023/10/10 08:40:57;;;;;;;11.65;8.27;;;24.50;92.90;;;;;;5096982;28;20528;-73
2023/10/10 08:43:28;;;;;;;11.75;8.70;;;25.00;92.00;;;;;;5107069;28;20207;-72
2023/10/10 08:45:56;;;;;;;16.92;9.02;;;25.50;90.00;;;;;;5096144;28;20163;-73
2023/10/10 08:48:26;;;;;;;12.60;8.18;;;25.90;87.50;;;;;;5100410;28;20184;-71
2023/10/10 08:50:55;;;;;;;17.92;8.32;;;26.30;85.80;;;;;;5104669;28;20186;-71
2023/10/10 08:53:22;;;;;;;16.58;8.65;;;26.30;84.40;;;;;;5093889;28;20176;-74
2023/10/10 08:55:56;;;;;;;12.32;8.32;;;27.10;80.40;;;;;;5096739;28;20178;-74
2023/10/10 08:58:22;;;;;;;14.95;8.30;;;27.10;79.70;;;;;;5100499;28;20176;-73
2023/10/10 09:00:49;;;;;;;14.60;9.38;;;27.30;76.80;;;;;;5099951;28;20186;-74
2023/10/10 09:03:14;;;;;;;14.55;8.57;;;27.30;75.90;;;;;;5115198;28;20205;-71
2023/10/10 09:05:40;;;;;;;13.80;8.10;;;27.60;76.00;;;;;;5098687;28;20171;-74
2023/10/10 09:08:14;;;;;;;16.85;8.93;;;27.50;75.10;;;;;;5106493;28;20210;-71
2023/10/10 09:10:42;;;;;;;13.88;7.80;;;27.20;76.20;;;;;;5106392;28;20186;-72
2023/10/10 09:13:09;;;;;;;14.32;8.55;;;26.10;80.30;;;;;;5114721;27;20186;-72
2023/10/10 09:15:35;;;;;;;15.60;8.70;;;25.80;84.40;;;;;;5094407;27;20179;-71
2023/10/10 09:18:17;;;;;;;12.80;8.32;;;25.10;88.90;;;;;;5093637;28;20176;-72
2023/10/10 09:20:45;;;;;;;15.05;8.13;;;24.50;91.40;;;;;;5106627;28;20666;-75
2023/10/10 09:23:21;;;;;;;16.75;7.93;;;24.60;92.20;;;;;;5115032;28;20599;-74
2023/10/10 09:25:48;;;;;;;26.30;8.80;;;24.70;91.80;;;;;;5090912;28;20201;-74
2023/10/10 09:28:16;;;;;;;15.07;8.00;;;24.70;92.20;;;;;;5105391;28;20186;-73
2023/10/10 09:31:20;;;;;;;8.52;6.60;;;24.10;92.70;;;;;;5094759;28;20176;-71
2023/10/10 09:33:42;;;;;;;12.45;7.22;;;24.20;93.20;;;;;;5107547;28;20207;-72
2023/10/10 09:36:08;;;;;;;11.13;6.85;;;24.10;92.80;;;;;;5095249;28;20173;-73
2023/10/10 09:38:45;;;;;;;12.35;7.05;;;24.60;92.90;;;;;;5089560;28;20172;-73
2023/10/10 09:41:26;;;;;;;13.10;6.57;;;25.20;91.70;;;;;;5109826;28;20175;-73
2023/10/10 09:49:43;;;;;;;12.35;6.70;;;26.30;84.40;;;;;;5111755;28;20270;-74
2023/10/10 09:58:00;;;;;;;16.77;7.32;;;26.90;82.10;;;;;;5109920;28;20266;-73
2023/10/10 10:06:02;;;;;;;11.93;6.97;;;27.60;76.50;;;;;;5088291;28;20270;-75
2023/10/10 10:09:15;;;;;;;13.05;6.82;;;26.80;77.40;;;;;;5102114;28;20179;-72
2023/10/10 10:11:51;;;;;;;15.20;7.50;;;26.80;79.30;;;;;;5092731;28;20172;-74
2023/10/10 10:14:39;;;;;;;14.15;7.18;;;26.90;78.50;;;;;;5112838;28;20159;-74
2023/10/10 10:17:18;;;;;;;14.07;7.00;;;27.10;79.00;;;;;;5096488;28;20221;-74
2023/10/10 10:19:45;;;;;;;11.02;7.18;;;27.20;78.30;;;;;;5076415;28;20178;-71
2023/10/10 10:22:18;;;;;;;12.35;6.57;;;26.80;78.20;;;;;;5099604;28;20559;-73
2023/10/10 10:24:46;;;;;;;11.40;6.20;;;27.30;76.40;;;;;;5100435;28;20183;-72
2023/10/10 10:27:25;;;;;;;9.40;6.10;;;27.60;73.70;;;;;;5109225;28;20269;-73
2023/10/10 10:32:49;;;;;;;11.75;6.45;;;28.70;69.10;;;;;;5105182;28;20179;-73
2023/10/10 10:36:05;;;;;;;11.10;6.20;;;27.80;70.60;;;;;;5107619;28;20172;-74
2023/10/10 10:38:33;;;;;;;10.27;6.15;;;27.90;69.10;;;;;;5101285;28;20182;-75
2023/10/10 10:41:16;;;;;;;11.43;6.07;;;28.00;68.90;;;;;;5106883;28;20170;-74
2023/10/10 10:43:49;;;;;;;7.93;6.07;;;28.40;68.30;;;;;;5083266;28;20195;-74
2023/10/10 10:46:27;;;;;;;16.90;7.22;;;28.20;66.60;;;;;;5111951;28;20171;-71
2023/10/10 10:49:01;;;;;;;11.75;6.25;;;28.30;65.60;;;;;;5098873;28;20194;-74
2023/10/10 10:52:17;;;;;;;16.88;6.80;;;29.00;62.50;;;;;;5110344;28;20659;-75
2023/10/10 10:54:37;;;;;;;14.27;6.32;;;29.50;59.10;;;;;;5099040;28;20321;-75
2023/10/10 10:57:03;;;;;;;18.70;7.20;;;28.80;59.70;;;;;;5086928;28;20192;-76
2023/10/10 10:59:35;;;;;;;11.20;6.07;;;29.20;58.10;;;;;;5072694;28;20169;-77
2023/10/10 11:02:12;;;;;;;8.88;6.53;;;29.10;56.90;;;;;;5072736;28;20168;-75
2023/10/10 11:07:07;;;;;;;12.70;6.43;;;28.10;55.60;;;;;;5095486;28;20546;-75
2023/10/10 11:09:34;;;;;;;15.38;5.80;;;28.40;55.20;;;;;;5093685;28;20410;-74
2023/10/10 11:12:02;;;;;;;14.65;5.65;;;28.80;54.20;;;;;;5111967;28;20566;-73
2023/10/10 11:14:29;;;;;;;11.95;6.65;;;29.30;52.60;;;;;;5095583;28;20176;-77
2023/10/10 11:16:58;;;;;;;15.18;6.50;;;29.30;52.80;;;;;;5089675;28;20184;-73
2023/10/10 11:22:00;;;;;;;11.57;5.72;;;29.50;51.00;;;;;;5089699;28;20298;-74
2023/10/10 11:24:31;;;;;;;11.57;5.82;;;29.30;49.90;;;;;;5100515;28;20203;-75
2023/10/10 11:27:07;;;;;;;14.77;5.20;;;29.10;51.90;;;;;;5098220;28;20193;-72
2023/10/10 11:29:44;;;;;;;8.05;5.63;;;29.20;50.60;;;;;;5094570;28;20175;-75
2023/10/10 11:32:13;;;;;;;14.30;5.78;;;29.00;50.40;;;;;;5104443;28;20190;-71
2023/10/10 11:34:42;;;;;;;14.38;5.78;;;28.40;49.10;;;;;;5102627;28;20702;-76
2023/10/10 11:37:31;;;;;;;8.20;5.05;;;28.40;49.50;;;;;;5096411;28;20719;-72
2023/10/10 11:40:19;;;;;;;10.77;5.65;;;28.10;49.20;;;;;;5096772;28;20249;-72
2023/10/10 11:42:49;;;;;;;16.42;5.78;;;27.90;49.90;;;;;;5091464;28;20195;-73
2023/10/10 11:45:24;;;;;;;14.23;5.63;;;28.10;49.80;;;;;;5108072;28;20183;-71
2023/10/10 11:47:52;;;;;;;13.95;5.88;;;28.20;49.30;;;;;;5097372;28;20175;-71
2023/10/10 11:50:19;;;;;;;7.00;5.32;;;28.00;50.30;;;;;;5102015;28;20179;-72
2023/10/10 11:52:58;;;;;;;11.75;5.28;;;27.90;49.70;;;;;;5099463;28;20167;-74
2023/10/10 11:55:25;;;;;;;17.80;5.43;;;27.30;50.90;;;;;;5090800;28;20206;-72
2023/10/10 11:57:57;;;;;;;14.10;5.82;;;27.20;51.20;;;;;;5097448;28;20240;-72
2023/10/10 12:00:30;;;;;;;9.60;5.80;;;27.20;51.80;;;;;;5101268;28;20241;-74
2023/10/10 12:02:57;;;;;;;15.07;5.38;;;27.10;52.10;;;;;;5091655;28;20199;-72
2023/10/10 12:08:05;;;;;;;14.82;5.10;;;26.60;52.00;;;;;;5095445;28;20210;-71
2023/10/10 12:11:11;;;;;;;17.80;5.90;;;26.80;53.80;;;;;;5101867;28;20221;-72
2023/10/10 12:15:55;;;;;;;11.73;5.60;;;26.70;53.40;;;;;;5097713;28;20185;-79
2023/10/10 12:18:21;;;;;;;8.70;5.00;;;26.80;53.10;;;;;;5101659;28;20164;-77
2023/10/10 12:20:47;;;;;;;7.60;4.88;;;26.40;52.60;;;;;;5103902;28;20732;-76
2023/10/10 12:23:13;;;;;;;8.98;4.75;;;26.20;52.00;;;;;;5094423;28;20207;-79
2023/10/10 12:25:41;;;;;;;7.88;5.20;;;25.80;52.70;;;;;;5109971;28;20179;-77
2023/10/10 12:28:12;;;;;;;15.07;5.22;;;25.50;53.60;;;;;;5111653;28;20629;-76
2023/10/10 12:30:40;;;;;;;6.55;4.53;;;25.70;55.10;;;;;;5098798;28;20176;-78
2023/10/10 12:33:12;;;;;;;10.38;4.50;;;25.50;54.80;;;;;;5094219;28;20187;-76
2023/10/10 12:35:47;;;;;;;9.43;4.38;;;25.50;54.70;;;;;;5093824;28;20578;-75
2023/10/10 12:38:23;;;;;;;6.00;4.30;;;25.40;55.40;;;;;;5107135;28;20171;-78
2023/10/10 12:40:53;;;;;;;5.68;4.00;;;25.40;55.40;;;;;;5109456;28;20186;-75
2023/10/10 12:43:25;;;;;;;5.80;4.60;;;25.30;55.70;;;;;;5114200;27;20616;-74
2023/10/10 12:45:54;;;;;;;12.48;4.35;;;25.30;56.50;;;;;;5101457;28;20206;-76
2023/10/10 12:48:23;;;;;;;14.43;4.32;;;25.20;57.10;;;;;;5115495;28;20167;-78
2023/10/10 12:50:50;;;;;;;14.93;4.57;;;25.40;57.60;;;;;;5102167;28;20191;-77
2023/10/10 12:53:19;;;;;;;10.80;4.35;;;25.50;58.30;;;;;;5111872;28;20224;-77
2023/10/10 12:56:00;;;;;;;6.47;4.15;;;25.60;57.60;;;;;;5099470;28;20171;-77
2023/10/10 12:58:27;;;;;;;10.13;4.53;;;25.50;57.40;;;;;;5115090;28;20170;-76
2023/10/10 13:00:54;;;;;;;10.25;4.47;;;25.50;57.90;;;;;;5100807;28;20183;-77
2023/10/10 13:03:22;;;;;;;13.63;4.93;;;25.60;58.40;;;;;;5111606;28;20264;-77
2023/10/10 13:05:50;;;;;;;9.32;4.35;;;25.70;58.20;;;;;;5099347;28;20259;-76
2023/10/10 13:08:18;;;;;;;10.88;4.35;;;25.70;57.80;;;;;;5114880;27;20198;-75
2023/10/10 13:10:44;;;;;;;9.07;4.55;;;25.70;58.40;;;;;;5102161;28;20175;-75
2023/10/10 13:13:10;;;;;;;7.95;4.32;;;25.60;57.50;;;;;;5094434;28;20215;-75
2023/10/10 13:15:52;;;;;;;6.13;4.20;;;25.50;57.40;;;;;;5097362;28;20190;-75
2023/10/10 13:18:22;;;;;;;7.72;4.43;;;25.60;57.20;;;;;;5105758;28;20642;-75
2023/10/10 13:20:51;;;;;;;8.25;4.20;;;25.50;55.70;;;;;;5106957;28;20207;-76
2023/10/10 13:23:18;;;;;;;5.78;3.70;;;25.60;56.70;;;;;;5114127;28;20191;-79
2023/10/10 13:25:44;;;;;;;7.50;4.53;;;25.70;56.30;;;;;;5109645;28;20169;-75
2023/10/10 13:28:17;;;;;;;9.45;4.63;;;25.80;56.80;;;;;;5102606;28;20179;-76
2023/10/10 13:30:48;;;;;;;7.18;4.20;;;25.80;57.00;;;;;;5101829;28;20176;-76
2023/10/10 13:33:15;;;;;;;11.90;4.70;;;25.80;57.30;;;;;;5094074;28;20176;-77
2023/10/10 13:35:41;;;;;;;7.88;4.10;;;25.70;56.30;;;;;;5098066;28;20178;-77
2023/10/10 13:38:07;;;;;;;6.55;3.97;;;25.60;56.90;;;;;;5105556;28;20176;-76
2023/10/10 13:40:48;;;;;;;6.50;4.03;;;25.70;55.30;;;;;;5104720;28;20707;-79
2023/10/10 13:43:18;;;;;;;7.03;3.78;;;25.70;54.70;;;;;;5096568;28;20262;-76
2023/10/10 13:45:45;;;;;;;7.82;4.20;;;25.60;55.10;;;;;;5098549;28;20191;-77
2023/10/10 13:48:13;;;;;;;9.20;4.72;;;25.60;55.00;;;;;;5105959;28;20191;-76
2023/10/10 13:50:44;;;;;;;5.47;3.65;;;25.60;55.50;;;;;;5105384;28;20216;-79
2023/10/10 13:53:14;;;;;;;7.38;4.45;;;25.60;55.20;;;;;;5097927;28;20175;-77
2023/10/10 13:55:41;;;;;;;7.22;4.30;;;25.60;55.20;;;;;;5096781;28;20269;-79
2023/10/10 13:58:12;;;;;;;6.18;4.25;;;25.50;55.40;;;;;;5112883;28;20226;-79
2023/10/10 14:00:43;;;;;;;8.25;4.05;;;25.50;55.80;;;;;;5113482;28;20159;-79
2023/10/10 14:03:09;;;;;;;7.60;4.03;;;25.60;55.80;;;;;;5113080;28;20286;-80
2023/10/10 14:05:41;;;;;;;8.20;4.57;;;25.70;56.30;;;;;;5095821;27;20209;-78
2023/10/10 14:08:09;;;;;;;7.70;4.47;;;25.70;57.00;;;;;;5113699;28;20199;-77
2023/10/10 14:10:37;;;;;;;5.85;4.40;;;25.70;56.60;;;;;;5102357;28;20263;-77
2023/10/10 14:13:23;;;;;;;8.45;3.90;;;25.60;56.90;;;;;;5108494;28;20171;-77
2023/10/10 14:15:57;;;;;;;9.50;4.50;;;25.40;57.40;;;;;;5106919;28;20187;-76
2023/10/10 14:18:45;;;;;;;10.85;4.40;;;25.30;57.70;;;;;;5102255;28;20166;-78
2023/10/10 14:21:11;;;;;;;8.18;4.28;;;25.40;58.40;;;;;;5095676;28;20226;-78
2023/10/10 14:23:41;;;;;;;9.70;4.22;;;25.50;58.90;;;;;;5094513;28;20276;-78
2023/10/10 14:26:18;;;;;;;7.80;4.30;;;25.60;58.60;;;;;;5105869;28;20236;-77
2023/10/10 14:28:51;;;;;;;5.55;4.10;;;25.50;57.70;;;;;;5092987;28;20171;-79
2023/10/10 14:31:23;;;;;;;5.57;3.60;;;25.50;58.20;;;;;;5109216;28;20266;-78
2023/10/10 14:33:54;;;;;;;7.15;3.55;;;25.50;58.50;;;;;;5091356;28;20172;-78
2023/10/10 14:36:20;;;;;;;8.70;4.32;;;25.60;57.80;;;;;;5101941;28;20167;-80
2023/10/10 14:38:50;;;;;;;8.25;4.28;;;25.70;57.80;;;;;;5099806;28;20187;-80
2023/10/10 14:41:23;;;;;;;7.82;3.90;;;25.80;58.10;;;;;;5092986;28;20179;-79
2023/10/10 14:43:54;;;;;;;11.63;3.97;;;25.70;57.60;;;;;;5108213;28;20230;-80
2023/10/10 14:46:27;;;;;;;6.43;4.07;;;25.70;58.40;;;;;;5102105;28;20190;-79
2023/10/10 14:49:06;;;;;;;7.50;3.92;;;25.50;58.50;;;;;;5098248;28;20258;-79
2023/10/10 14:51:36;;;;;;;6.28;3.97;;;25.50;59.10;;;;;;5107454;28;20213;-80
2023/10/10 14:54:12;;;;;;;10.82;4.35;;;25.40;58.80;;;;;;5099833;28;20224;-79
2023/10/10 14:56:45;;;;;;;7.90;4.25;;;25.40;59.30;;;;;;5099402;28;20283;-78
2023/10/10 14:59:17;;;;;;;10.82;3.92;;;25.30;59.70;;;;;;5108732;28;20167;-78
2023/10/10 15:01:47;;;;;;;8.55;4.15;;;25.20;60.50;;;;;;5091464;28;20172;-81
2023/10/10 15:04:17;;;;;;;8.82;4.10;;;25.20;61.40;;;;;;5104166;28;20218;-80
2023/10/10 15:06:45;;;;;;;5.57;3.72;;;25.30;62.20;;;;;;5105183;28;20565;-79
2023/10/10 15:09:14;;;;;;;10.13;3.97;;;25.40;62.10;;;;;;5096180;28;20180;-78
2023/10/10 15:11:41;;;;;;;9.57;3.97;;;25.30;62.30;;;;;;5090900;28;20213;-78
2023/10/10 15:14:09;;;;;;;10.77;4.25;;;25.30;63.50;;;;;;5103799;28;20267;-80
2023/10/10 15:16:36;;;;;;;11.75;4.65;;;25.20;64.20;;;;;;5101965;28;20175;-75
2023/10/10 15:19:08;;;;;;;8.80;4.40;;;25.20;65.60;;;;;;5113071;28;20367;-78
2023/10/10 15:21:38;;;;;;;11.25;5.20;;;25.10;66.00;;;;;;5110735;28;20219;-79
2023/10/10 15:24:11;;;;;;;9.32;4.68;;;25.10;66.40;;;;;;5111636;28;20207;-79
2023/10/10 15:26:39;;;;;;;8.25;4.75;;;25.00;67.40;;;;;;5110917;28;20300;-80
2023/10/10 15:29:05;;;;;;;13.88;5.38;;;24.90;69.00;;;;;;5111059;28;20266;-79
2023/10/10 15:31:31;;;;;;;14.75;4.90;;;24.90;71.50;;;;;;5110258;28;20159;-79
2023/10/10 15:33:58;;;;;;;10.07;4.93;;;24.80;73.00;;;;;;5111007;28;20174;-82
2023/10/10 15:36:30;;;;;;;10.98;4.88;;;24.70;75.00;;;;;;5111919;28;20188;-80
2023/10/10 15:39:06;;;;;;;9.75;4.90;;;24.60;77.00;;;;;;5113194;28;20176;-80
2023/10/10 15:41:36;;;;;;;15.75;4.40;;;24.50;79.30;;;;;;5111859;28;20178;-80
2023/10/10 15:44:03;;;;;;;9.98;4.30;;;24.30;81.50;;;;;;5112624;28;20707;-79
2023/10/10 15:46:36;;;;;;;9.88;4.25;;;24.20;84.10;;;;;;5112215;28;20665;-78
2023/10/10 15:49:14;;;;;;;11.05;4.90;;;24.10;85.90;;;;;;5112560;28;20179;-82
2023/10/10 15:51:39;;;;;;;7.03;4.43;;;24.10;87.60;;;;;;5111667;28;20178;-81
2023/10/10 15:54:07;;;;;;;7.30;4.57;;;24.10;88.80;;;;;;5111602;28;20211;-79
2023/10/10 15:56:33;;;;;;;10.13;4.85;;;24.10;90.20;;;;;;5112765;28;20246;-81
2023/10/10 15:58:58;;;;;;;13.95;4.80;;;24.00;90.80;;;;;;5111380;28;20257;-80
2023/10/10 16:01:30;;;;;;;12.20;4.80;;;24.00;91.50;;;;;;5112502;28;20171;-81
2023/10/10 16:04:12;;;;;;;11.75;4.93;;;24.00;91.80;;;;;;5112987;28;20235;-81
2023/10/10 16:06:38;;;;;;;8.48;4.80;;;24.00;92.20;;;;;;5111986;28;20190;-82
2023/10/10 16:09:14;;;;;;;9.95;5.00;;;23.90;92.60;;;;;;5115684;28;20265;-80
2023/10/10 16:11:41;;;;;;;7.50;4.38;;;23.90;92.90;;;;;;5117037;28;20178;-81